Time;durP1;ratioP1;P1;durP2;ratioP2;P2;SDS_P1;SDS_P2;PMS_P1;PMS_P2;Temp;Humidity;BMP_temperature;BMP_pressure;BME280_temperature;BME280_humidity;BME280_pressure;Samples;Min_cycle;Max_cycle;Signal;HPM_P1;HPM_P2
2022/09/30 00:01:44;;;;;;;12.88;2.95;;;;;;;9.01;100.00;97719.53;5066734;28;20043;-90
2022/09/30 00:04:14;;;;;;;14.35;3.30;;;;;;;9.04;100.00;97722.06;5060417;28;20029;-90
2022/09/30 00:06:40;;;;;;;15.40;3.13;;;;;;;9.31;100.00;97722.38;5065214;28;20083;-90
2022/09/30 00:09:05;;;;;;;16.10;3.72;;;;;;;9.33;100.00;97720.63;5096970;27;20769;-91
2022/09/30 00:11:34;;;;;;;11.90;2.88;;;;;;;9.27;100.00;97731.13;5104457;27;20036;-90
2022/09/30 00:14:01;;;;;;;16.73;3.42;;;;;;;9.45;100.00;97735.09;5069180;28;20040;-89
2022/09/30 00:16:30;;;;;;;11.63;3.03;;;;;;;9.44;100.00;97730.81;5095869;27;20119;-89
2022/09/30 00:18:56;;;;;;;16.35;3.22;;;;;;;9.45;100.00;97727.31;5065704;28;20024;-90
2022/09/30 00:21:23;;;;;;;13.90;3.00;;;;;;;9.45;100.00;97727.31;5096823;28;20036;-90
2022/09/30 00:23:48;;;;;;;15.93;3.53;;;;;;;9.61;100.00;97714.84;5067964;28;20079;-89
2022/09/30 00:26:17;;;;;;;11.32;2.85;;;;;;;10.32;100.00;97715.78;5067846;28;20718;-89
2022/09/30 00:28:43;;;;;;;14.77;2.80;;;;;;;10.00;100.00;97709.59;5098622;27;20148;-89
2022/09/30 00:31:15;;;;;;;12.68;2.90;;;;;;;9.42;100.00;97714.38;5060500;28;20432;-89
2022/09/30 00:33:41;;;;;;;14.27;2.95;;;;;;;9.55;100.00;97721.03;5067007;28;20024;-91
2022/09/30 00:36:07;;;;;;;10.68;2.60;;;;;;;9.57;100.00;97714.03;5064432;28;20043;-90
2022/09/30 00:38:33;;;;;;;17.38;3.15;;;;;;;9.20;100.00;97715.66;5064534;28;20463;-90
2022/09/30 00:41:00;;;;;;;14.00;2.33;;;;;;;9.05;100.00;97722.03;5066689;28;20039;-90
2022/09/30 00:43:50;;;;;;;17.35;3.08;;;;;;;9.45;100.00;97716.91;5057580;28;20044;-90
2022/09/30 00:46:30;;;;;;;15.35;2.90;;;;;;;9.38;100.00;97716.16;5066436;28;20059;-90
2022/09/30 00:48:58;;;;;;;16.30;2.45;;;;;;;9.37;100.00;97715.31;5064955;28;20029;-90
2022/09/30 00:51:30;;;;;;;14.15;3.00;;;;;;;9.64;100.00;97727.78;5066193;28;20025;-89
2022/09/30 00:54:06;;;;;;;11.43;2.40;;;;;;;9.74;100.00;97722.34;5098868;28;20039;-90
2022/09/30 00:56:48;;;;;;;11.15;2.70;;;;;;;9.62;100.00;97720.00;5066747;28;20038;-89
2022/09/30 00:59:22;;;;;;;13.98;3.05;;;;;;;9.48;100.00;97715.09;5091979;27;20488;-89
2022/09/30 01:01:48;;;;;;;13.90;2.45;;;;;;;9.67;100.00;97719.88;5072155;28;20420;-89
2022/09/30 01:04:16;;;;;;;13.68;2.88;;;;;;;9.32;100.00;97703.28;5063804;28;20056;-89
2022/09/30 01:06:42;;;;;;;11.55;3.33;;;;;;;9.27;100.00;97711.22;5070645;28;20035;-89
2022/09/30 01:09:09;;;;;;;11.13;2.92;;;;;;;9.40;100.00;97711.78;5080962;28;20041;-90
2022/09/30 01:11:35;;;;;;;11.45;2.85;;;;;;;9.30;100.00;97710.28;5067563;28;20036;-89
2022/09/30 01:14:10;;;;;;;14.05;3.20;;;;;;;9.56;100.00;97712.31;5067005;28;20074;-90
2022/09/30 01:16:56;;;;;;;12.23;2.88;;;;;;;9.39;100.00;97705.75;5065541;28;20387;-90
2022/09/30 01:19:40;;;;;;;17.20;4.10;;;;;;;9.40;100.00;97714.41;5071176;28;21981;-89
2022/09/30 01:22:05;;;;;;;13.73;3.97;;;;;;;9.30;100.00;97721.53;5107122;27;20495;-89
2022/09/30 01:24:55;;;;;;;17.85;4.60;;;;;;;9.33;100.00;97731.03;5096983;28;20071;-90
2022/09/30 01:27:39;;;;;;;20.05;5.28;;;;;;;10.30;100.00;97720.16;5104135;27;20503;-91
2022/09/30 01:30:25;;;;;;;12.82;4.93;;;;;;;9.52;100.00;97718.47;5102357;28;20116;-89
2022/09/30 01:33:14;;;;;;;13.85;4.95;;;;;;;9.71;100.00;97721.53;5059677;28;20064;-89
2022/09/30 01:36:05;;;;;;;13.77;5.28;;;;;;;9.62;100.00;97727.81;5077190;28;20044;-89
2022/09/30 01:38:47;;;;;;;14.30;4.97;;;;;;;9.44;100.00;97725.63;5068580;28;20039;-90
2022/09/30 01:41:53;;;;;;;15.02;4.50;;;;;;;9.45;100.00;97730.78;5068675;28;20119;-89
2022/09/30 01:45:01;;;;;;;13.55;3.83;;;;;;;9.44;100.00;97729.06;5081756;28;20033;-89
2022/09/30 01:47:43;;;;;;;15.43;3.53;;;;;;;9.46;100.00;97723.81;5083099;28;20098;-89
2022/09/30 01:50:23;;;;;;;11.32;3.45;;;;;;;10.25;100.00;97736.75;5073465;28;20036;-89
2022/09/30 01:53:02;;;;;;;9.00;3.20;;;;;;;9.42;100.00;97719.56;5102475;27;20111;-90
2022/09/30 01:55:47;;;;;;;10.13;3.22;;;;;;;9.29;100.00;97724.19;5103494;27;20851;-90
2022/09/30 01:58:34;;;;;;;12.45;3.50;;;;;;;9.27;100.00;97725.94;5076612;28;20483;-89
2022/09/30 02:01:15;;;;;;;11.25;3.47;;;;;;;10.41;100.00;97715.59;5110378;22;21908;-92
2022/09/30 02:03:55;;;;;;;13.88;4.05;;;;;;;9.03;100.00;97704.72;5060719;28;20575;-92
2022/09/30 02:06:35;;;;;;;15.15;3.83;;;;;;;9.04;100.00;97714.25;5058233;28;20075;-94
2022/09/30 02:09:47;;;;;;;11.68;3.88;;;;;;;9.21;100.00;97725.19;5054267;28;20047;-92
2022/09/30 02:12:31;;;;;;;13.43;4.13;;;;;;;9.15;100.00;97716.66;5053746;28;20048;-93
2022/09/30 02:15:22;;;;;;;21.73;4.15;;;;;;;9.03;100.00;97720.34;5049109;28;20104;-92
2022/09/30 02:17:57;;;;;;;12.30;4.10;;;;;;;9.04;100.00;97730.72;5049293;28;20082;-92
2022/09/30 02:20:31;;;;;;;12.35;3.83;;;;;;;8.94;100.00;97723.13;5056269;28;20037;-93
2022/09/30 02:23:29;;;;;;;13.57;4.00;;;;;;;9.13;100.00;97726.22;5053249;28;20040;-92
2022/09/30 02:26:07;;;;;;;15.35;3.92;;;;;;;9.05;100.00;97708.19;5057009;28;20452;-93
2022/09/30 02:28:38;;;;;;;13.20;4.20;;;;;;;9.05;100.00;97708.19;5052604;28;20164;-93
2022/09/30 02:31:28;;;;;;;14.77;3.72;;;;;;;9.28;100.00;97699.03;5057296;28;20044;-92
2022/09/30 02:34:24;;;;;;;14.27;4.05;;;;;;;9.10;100.00;97702.88;5048976;28;20024;-93
2022/09/30 02:36:59;;;;;;;12.73;4.20;;;;;;;9.19;100.00;97687.09;5049054;28;20040;-92
2022/09/30 02:39:31;;;;;;;14.65;3.75;;;;;;;9.23;100.00;97681.78;5055685;28;20388;-93
2022/09/30 02:42:11;;;;;;;10.57;3.70;;;;;;;9.07;100.00;97682.13;5055644;28;20039;-93
2022/09/30 02:44:41;;;;;;;11.93;3.72;;;;;;;9.11;100.00;97681.19;5055900;28;20021;-93
2022/09/30 02:50:30;;;;;;;12.88;3.17;;;;;;;9.03;100.00;97684.81;5047739;28;20090;-93
2022/09/30 02:52:58;;;;;;;15.32;3.25;;;;;;;9.02;100.00;97687.44;5056035;28;20051;-93
2022/09/30 02:55:31;;;;;;;9.70;2.95;;;;;;;9.02;100.00;97682.25;5053896;28;20025;-92
2022/09/30 02:58:19;;;;;;;9.55;3.10;;;;;;;9.11;100.00;97665.59;5052161;28;20033;-92
2022/09/30 03:00:45;;;;;;;8.38;2.60;;;;;;;9.01;100.00;97663.16;5053493;28;20035;-92
2022/09/30 03:03:53;;;;;;;10.00;3.00;;;;;;;9.18;100.00;97672.38;5053317;28;20032;-93
2022/09/30 03:06:33;;;;;;;9.02;3.03;;;;;;;14.19;100.00;97657.84;5045620;28;20032;-93
2022/09/30 03:09:09;;;;;;;13.65;3.10;;;;;;;15.45;100.00;97619.97;5053040;28;20025;-93
2022/09/30 03:11:46;;;;;;;9.23;3.03;;;;;;;15.56;100.00;97603.72;5050345;28;20121;-93
2022/09/30 03:14:40;;;;;;;12.18;3.25;;;;;;;10.85;100.00;97605.78;5044593;28;20033;-93
2022/09/30 03:17:29;;;;;;;8.98;3.03;;;;;;;9.15;100.00;97574.44;5055309;28;20040;-93
2022/09/30 03:20:08;;;;;;;10.30;3.30;;;;;;;8.88;100.00;97602.75;5051146;28;20079;-93
2022/09/30 03:22:49;;;;;;;11.90;3.08;;;;;;;8.95;100.00;97626.91;5055334;28;20037;-93
2022/09/30 03:26:02;;;;;;;11.45;3.20;;;;;;;9.09;100.00;97628.31;5053055;28;20119;-92
2022/09/30 03:28:55;;;;;;;11.77;3.70;;;;;;;9.04;100.00;97624.06;5065797;28;20020;-93
2022/09/30 03:31:49;;;;;;;11.80;3.20;;;;;;;8.90;100.00;97614.88;5051433;28;20040;-93
2022/09/30 03:34:56;;;;;;;13.98;3.40;;;;;;;8.97;100.00;97626.84;5057004;28;20072;-92
2022/09/30 03:37:51;;;;;;;11.20;3.20;;;;;;;8.93;100.00;97618.25;5049668;28;20666;-93
2022/09/30 03:40:39;;;;;;;9.85;3.28;;;;;;;9.13;100.00;97616.97;5055417;28;20056;-93
2022/09/30 03:43:29;;;;;;;9.50;2.67;;;;;;;9.18;100.00;97625.53;5039767;28;20532;-92
2022/09/30 03:46:17;;;;;;;10.90;2.80;;;;;;;9.17;100.00;97608.22;5067687;28;20104;-93
2022/09/30 03:48:51;;;;;;;10.43;2.75;;;;;;;8.86;100.00;97606.28;5053544;28;20079;-93
2022/09/30 03:51:31;;;;;;;10.13;2.80;;;;;;;8.91;100.00;97598.38;5045028;28;20481;-92
2022/09/30 03:54:17;;;;;;;9.82;2.80;;;;;;;9.13;100.00;97598.75;5050015;28;20051;-93
2022/09/30 03:56:42;;;;;;;10.52;2.55;;;;;;;9.08;100.00;97598.88;5054795;28;20029;-93
2022/09/30 03:59:19;;;;;;;8.40;2.40;;;;;;;9.34;100.00;97581.84;5043326;28;20021;-93
2022/09/30 04:01:44;;;;;;;15.23;2.83;;;;;;;9.21;100.00;97579.53;5041807;28;20040;-93
2022/09/30 04:04:13;;;;;;;14.10;2.75;;;;;;;9.17;100.00;97577.88;5068537;28;20748;-92
2022/09/30 04:06:41;;;;;;;9.82;2.90;;;;;;;9.15;100.00;97584.00;5053061;28;20032;-93
2022/09/30 04:09:06;;;;;;;9.77;2.90;;;;;;;9.29;100.00;97576.72;5049826;28;20245;-93
2022/09/30 04:11:32;;;;;;;10.60;2.90;;;;;;;9.26;100.00;97584.59;5056544;28;20052;-93
2022/09/30 04:14:05;;;;;;;13.18;3.17;;;;;;;9.44;100.00;97580.72;5054294;28;20071;-92
2022/09/30 04:16:33;;;;;;;11.93;3.17;;;;;;;9.49;100.00;97575.41;5051388;28;20029;-92
2022/09/30 04:18:58;;;;;;;12.32;3.42;;;;;;;9.23;100.00;97567.31;5053652;28;20024;-93
2022/09/30 04:21:33;;;;;;;13.55;3.28;;;;;;;9.38;100.00;97575.66;5061137;28;20045;-93
2022/09/30 04:24:13;;;;;;;12.45;3.00;;;;;;;14.35;100.00;97568.91;5058767;28;20037;-93
2022/09/30 04:26:47;;;;;;;12.13;2.90;;;;;;;9.92;100.00;97509.25;5055592;28;20033;-92
2022/09/30 04:29:20;;;;;;;15.90;4.05;;;;;;;9.43;100.00;97531.31;5041180;28;20025;-92
2022/09/30 04:31:48;;;;;;;14.05;4.47;;;;;;;9.33;100.00;97534.13;5059136;28;20045;-94
2022/09/30 04:34:14;;;;;;;13.98;4.20;;;;;;;9.46;100.00;97534.69;5075913;28;20037;-92
2022/09/30 04:36:46;;;;;;;13.68;4.32;;;;;;;9.32;100.00;97555.00;5074095;28;20056;-92
2022/09/30 04:39:13;;;;;;;14.90;4.50;;;;;;;9.20;100.00;97536.19;5059994;28;20021;-92
2022/09/30 04:41:54;;;;;;;14.65;5.40;;;;;;;9.29;100.00;97555.06;5054100;28;20052;-93
2022/09/30 04:44:34;;;;;;;15.18;4.18;;;;;;;9.44;100.00;97559.91;5055292;28;20037;-93
2022/09/30 04:46:59;;;;;;;16.15;5.30;;;;;;;9.42;100.00;97551.25;5053275;28;20040;-93
2022/09/30 04:49:32;;;;;;;15.77;4.95;;;;;;;9.25;100.00;97546.47;5061014;28;20473;-93
2022/09/30 04:51:57;;;;;;;12.07;4.18;;;;;;;9.16;100.00;97542.34;5054881;28;20505;-92
2022/09/30 04:54:23;;;;;;;13.02;4.00;;;;;;;9.31;100.00;97548.06;5055678;28;20033;-93
2022/09/30 04:56:54;;;;;;;12.52;3.65;;;;;;;9.49;100.00;97550.25;5064965;28;20045;-93
2022/09/30 04:59:22;;;;;;;12.85;3.90;;;;;;;9.28;100.00;97533.38;5061213;28;20116;-93
2022/09/30 05:02:09;;;;;;;17.27;4.07;;;;;;;9.34;100.00;97524.59;5055592;28;20055;-94
2022/09/30 05:04:54;;;;;;;14.85;4.03;;;;;;;9.37;100.00;97533.16;5056163;28;20075;-93
2022/09/30 05:07:20;;;;;;;11.68;3.35;;;;;;;9.32;100.00;97514.19;5054636;28;20770;-94
2022/09/30 05:10:20;;;;;;;12.07;3.15;;;;;;;9.53;100.00;97528.47;5055767;28;20088;-94
2022/09/30 05:12:56;;;;;;;11.73;3.40;;;;;;;9.62;100.00;97526.53;5052564;28;20037;-94
2022/09/30 05:15:22;;;;;;;11.85;3.20;;;;;;;9.28;100.00;97502.16;5054994;28;20092;-94
2022/09/30 05:18:00;;;;;;;11.50;3.63;;;;;;;9.22;100.00;97503.16;5056080;28;20051;-93
2022/09/30 05:20:34;;;;;;;22.35;4.10;;;;;;;9.26;100.00;97510.91;5067305;28;20064;-93
2022/09/30 05:23:11;;;;;;;13.68;3.33;;;;;;;9.34;100.00;97490.78;5055316;28;20032;-93
2022/09/30 05:25:50;;;;;;;12.90;3.40;;;;;;;9.31;100.00;97496.91;5051750;28;20050;-95
2022/09/30 05:28:19;;;;;;;11.40;3.40;;;;;;;9.34;100.00;97501.19;5034549;28;20037;-94
2022/09/30 05:31:03;;;;;;;12.48;2.80;;;;;;;9.32;100.00;97482.13;5049916;28;20045;-95
2022/09/30 05:33:39;;;;;;;19.98;3.58;;;;;;;9.38;100.00;97480.25;5050843;28;20048;-94
2022/09/30 05:36:18;;;;;;;15.02;2.90;;;;;;;9.29;100.00;97469.22;5054737;28;20033;-93
2022/09/30 05:39:06;;;;;;;12.60;3.30;;;;;;;9.25;100.00;97483.19;5055194;28;20107;-92
2022/09/30 05:41:37;;;;;;;10.05;3.40;;;;;;;9.22;100.00;97479.75;5066972;28;20032;-95
2022/09/30 05:44:25;;;;;;;12.73;3.30;;;;;;;9.31;100.00;97477.81;5054832;28;20037;-94
2022/09/30 05:46:51;;;;;;;16.08;3.83;;;;;;;9.00;100.00;97466.41;5052692;28;20033;-94
2022/09/30 05:49:23;;;;;;;12.57;3.45;;;;;;;9.19;100.00;97476.38;5051992;28;20071;-94
2022/09/30 05:51:48;;;;;;;10.73;3.80;;;;;;;9.33;100.00;97469.09;5053717;28;20033;-93
2022/09/30 05:54:35;;;;;;;11.45;3.50;;;;;;;9.25;100.00;97475.38;5054648;28;20020;-94
2022/09/30 05:57:39;;;;;;;12.63;3.28;;;;;;;9.26;100.00;97474.50;5047833;28;20039;-94
2022/09/30 06:00:33;;;;;;;;;;;;;;;;;;;;;
2022/09/30 06:03:10;;;;;;;14.05;4.25;;;;;;;9.22;100.00;97466.75;5051658;28;20116;-93
2022/09/30 06:05:46;;;;;;;52.78;6.13;;;;;;;9.22;100.00;97464.16;5057927;28;20033;-94
2022/09/30 06:08:13;;;;;;;14.32;3.70;;;;;;;9.04;100.00;97442.03;5074239;28;20033;-93
2022/09/30 06:10:45;;;;;;;15.10;4.15;;;;;;;9.04;100.00;97455.03;5069610;28;20025;-91
2022/09/30 06:13:27;;;;;;;;;;;;;;;;;;;;;
2022/09/30 06:16:08;;;;;;;33.58;4.90;;;;;;;8.76;100.00;97444.44;5064188;28;20127;-94
2022/09/30 06:18:40;;;;;;;32.63;5.60;;;;;;;8.67;100.00;97442.91;5059173;28;20045;-93
2022/09/30 06:21:10;;;;;;;129.02;10.32;;;;;;;8.91;100.00;97445.84;5051724;28;20594;-92
2022/09/30 06:23:45;;;;;;;44.05;5.82;;;;;;;8.88;100.00;97466.72;5065695;28;20033;-93
2022/09/30 06:26:20;;;;;;;34.50;7.07;;;;;;;8.95;100.00;97454.41;5065728;28;20063;-91
2022/09/30 06:28:55;;;;;;;29.15;5.60;;;;;;;8.97;100.00;97450.03;5059477;28;20025;-95
2022/09/30 06:31:29;;;;;;;25.73;5.03;;;;;;;9.26;100.00;97438.06;5059138;28;20029;-93
2022/09/30 06:34:04;;;;;;;65.82;8.00;;;;;;;9.40;100.00;97423.81;5065417;28;20028;-93
2022/09/30 06:36:33;;;;;;;37.38;6.55;;;;;;;9.29;100.00;97435.41;5085356;28;20115;-94
2022/09/30 06:39:11;;;;;;;16.75;5.18;;;;;;;9.28;100.00;97411.09;5060688;28;20027;-94
2022/09/30 06:41:46;;;;;;;19.35;5.32;;;;;;;9.48;100.00;97415.81;5060288;28;20084;-94
2022/09/30 06:44:20;;;;;;;21.38;5.35;;;;;;;9.64;100.00;97397.19;5061819;28;20035;-93
2022/09/30 06:46:57;;;;;;;14.50;4.57;;;;;;;9.79;100.00;97390.69;5057475;28;20029;-93
2022/09/30 06:53:28;;;;;;;28.30;5.78;;;;;;;9.97;100.00;97381.53;5052985;28;20051;-95
2022/09/30 06:56:17;;;;;;;20.73;5.25;;;;;;;10.06;100.00;97370.81;5056575;28;20033;-94
2022/09/30 06:58:46;;;;;;;16.90;4.97;;;;;;;10.11;100.00;97371.53;5042110;28;20030;-94
2022/09/30 07:01:28;;;;;;;17.05;5.10;;;;;;;10.09;100.00;97370.75;5055342;28;20095;-94
2022/09/30 07:04:06;;;;;;;15.98;5.80;;;;;;;9.99;100.00;97353.66;5055679;28;20586;-95
2022/09/30 07:06:37;;;;;;;17.25;6.00;;;;;;;10.12;100.00;97364.56;5056311;28;20095;-95
2022/09/30 07:09:39;;;;;;;22.33;6.60;;;;;;;10.00;100.00;97366.63;5060633;28;20453;-93
2022/09/30 07:12:35;;;;;;;15.68;6.07;;;;;;;10.13;100.00;97369.75;5058459;28;20068;-94
2022/09/30 07:18:19;;;;;;;19.50;5.65;;;;;;;9.88;100.00;97353.97;5067490;28;20142;-94
2022/09/30 07:21:21;;;;;;;14.45;5.70;;;;;;;10.17;100.00;97368.75;5048351;28;20057;-93
2022/09/30 07:24:04;;;;;;;18.88;5.47;;;;;;;9.93;100.00;97351.25;5044826;28;20024;-94
2022/09/30 07:26:33;;;;;;;17.87;6.10;;;;;;;9.70;100.00;97340.59;5065033;28;20538;-93
2022/09/30 07:29:18;;;;;;;16.23;5.40;;;;;;;9.70;100.00;97357.94;5061302;28;20300;-93
2022/09/30 07:32:06;;;;;;;16.13;6.15;;;;;;;9.80;100.00;97368.97;5067869;28;20025;-93
2022/09/30 07:35:19;;;;;;;13.75;5.43;;;;;;;9.88;100.00;97365.25;5060777;28;20564;-92
2022/09/30 07:37:50;;;;;;;23.52;5.90;;;;;;;9.82;100.00;97352.41;5041022;28;20040;-94
2022/09/30 07:40:30;;;;;;;16.73;6.20;;;;;;;9.60;100.00;97344.34;5075908;28;20032;-94
2022/09/30 07:45:50;;;;;;;13.75;5.50;;;;;;;9.80;100.00;97312.56;5055804;28;20033;-95
2022/09/30 07:48:43;;;;;;;17.00;5.47;;;;;;;9.90;100.00;97324.38;5054536;28;20033;-96
2022/09/30 07:51:20;;;;;;;13.07;5.65;;;;;;;9.96;100.00;97322.50;5057824;28;20044;-95
2022/09/30 07:54:04;;;;;;;14.95;5.18;;;;;;;9.98;100.00;97311.16;5057806;28;20083;-95
2022/09/30 07:56:43;;;;;;;16.88;5.90;;;;;;;9.93;100.00;97305.22;5056776;28;20036;-93
2022/09/30 07:59:25;;;;;;;14.77;6.10;;;;;;;10.05;100.00;97322.25;5055067;28;20029;-94
2022/09/30 08:04:57;;;;;;;16.00;6.57;;;;;;;10.06;100.00;97316.97;5061000;28;20074;-93
2022/09/30 08:08:05;;;;;;;18.15;6.57;;;;;;;10.17;100.00;97298.41;5053758;28;20052;-93
2022/09/30 08:10:46;;;;;;;16.00;6.05;;;;;;;10.13;100.00;97273.38;5051605;28;20041;-93
2022/09/30 08:13:18;;;;;;;16.42;6.10;;;;;;;10.29;100.00;97271.13;5039533;28;20593;-94
2022/09/30 08:15:54;;;;;;;19.35;6.68;;;;;;;10.34;100.00;97263.16;5041151;28;20132;-94
2022/09/30 08:18:52;;;;;;;16.42;6.25;;;;;;;10.36;100.00;97269.22;5051602;28;20517;-94
2022/09/30 08:22:05;;;;;;;16.05;6.70;;;;;;;10.29;100.00;97268.50;5051139;28;20104;-96
2022/09/30 08:27:50;;;;;;;16.95;7.35;;;;;;;10.22;100.00;97249.63;5046161;28;20036;-94
2022/09/30 08:34:09;;;;;;;;;;;;;;;;;;;;;
2022/09/30 08:36:45;;;;;;;18.30;8.35;;;;;;;10.20;100.00;97237.53;5049968;28;20053;-95
2022/09/30 08:39:45;;;;;;;20.35;8.80;;;;;;;10.16;100.00;97252.44;5035756;28;20029;-95
2022/09/30 08:42:33;;;;;;;18.58;8.63;;;;;;;10.18;100.00;97228.94;5035548;28;20119;-95
2022/09/30 08:45:37;;;;;;;20.65;9.18;;;;;;;10.03;100.00;97245.88;5046755;28;20578;-93
2022/09/30 08:48:31;;;;;;;20.35;9.63;;;;;;;10.16;100.00;97251.56;5052182;28;20066;-95
2022/09/30 08:50:59;;;;;;;;;;;;;;;10.07;100.00;97240.53;5039453;28;20220;-92
2022/09/30 08:53:44;;;;;;;19.73;9.10;;;;;;;10.24;100.00;97246.97;5052386;28;20433;-93
2022/09/30 08:56:31;;;;;;;23.05;9.80;;;;;;;10.30;100.00;97231.16;5034005;28;20100;-94
2022/09/30 08:59:19;;;;;;;22.20;9.18;;;;;;;10.16;100.00;97231.59;5036987;28;20063;-96
2022/09/30 09:02:12;;;;;;;21.23;9.63;;;;;;;10.39;100.00;97220.44;5049300;28;20045;-95
2022/09/30 09:04:42;;;;;;;21.13;9.47;;;;;;;10.04;100.00;97201.56;5063669;28;20038;-94
2022/09/30 09:07:41;;;;;;;18.13;8.73;;;;;;;10.59;100.00;97211.09;5053985;28;20028;-95
2022/09/30 09:10:30;;;;;;;25.23;10.13;;;;;;;10.40;100.00;97190.03;5032703;28;20029;-92
2022/09/30 09:13:18;;;;;;;20.83;9.98;;;;;;;10.29;100.00;97189.50;5051542;28;20025;-95
2022/09/30 09:16:10;;;;;;;18.45;9.23;;;;;;;10.51;100.00;97187.91;5042334;28;20033;-95
2022/09/30 09:18:43;;;;;;;19.77;10.07;;;;;;;10.47;100.00;97181.09;5049508;28;20041;-96
2022/09/30 09:21:46;;;;;;;18.27;8.93;;;;;;;11.13;100.00;97153.56;5039930;28;20120;-95
2022/09/30 09:24:33;;;;;;;20.73;8.70;;;;;;;10.44;100.00;97142.13;5029006;28;20115;-96
2022/09/30 09:27:12;;;;;;;20.60;9.75;;;;;;;10.49;100.00;97150.59;5029058;28;20516;-95
2022/09/30 09:30:21;;;;;;;21.27;10.07;;;;;;;10.53;100.00;97143.53;5034400;28;20029;-95
2022/09/30 09:33:26;;;;;;;21.05;10.50;;;;;;;10.39;100.00;97120.56;5050301;28;20040;-94
2022/09/30 09:36:29;;;;;;;23.17;11.15;;;;;;;10.36;100.00;97128.50;5019366;28;20053;-95
2022/09/30 09:43:05;;;;;;;23.05;10.55;;;;;;;10.52;100.00;97101.00;5027032;28;20033;-95
2022/09/30 09:46:09;;;;;;;24.42;12.85;;;;;;;10.66;100.00;97078.78;5010260;28;20614;-95
2022/09/30 09:48:45;;;;;;;27.42;12.65;;;;;;;10.36;100.00;97061.56;4998723;28;20034;-95
2022/09/30 09:51:49;;;;;;;24.42;12.05;;;;;;;10.52;100.00;97071.44;5013737;28;20040;-95
2022/09/30 09:54:47;;;;;;;22.67;12.27;;;;;;;10.59;100.00;97067.72;5031945;28;20037;-94
2022/09/30 09:57:26;;;;;;;23.67;12.35;;;;;;;15.69;100.00;97017.88;5031251;28;20033;-94
2022/09/30 10:03:28;;;;;;;22.90;11.85;;;;;;;11.22;100.00;96989.69;5029729;28;20103;-95
2022/09/30 10:06:05;;;;;;;24.88;11.88;;;;;;;11.13;100.00;97010.09;5016267;28;20045;-94
2022/09/30 10:08:44;;;;;;;25.30;12.30;;;;;;;11.06;100.00;96999.91;5007755;28;20045;-95
2022/09/30 10:11:29;;;;;;;27.17;12.88;;;;;;;11.07;100.00;96990.31;5011280;28;20042;-96
2022/09/30 10:14:17;;;;;;;25.17;12.90;;;;;;;11.23;100.00;97009.66;5015606;28;20490;-95
2022/09/30 10:17:00;;;;;;;22.95;11.45;;;;;;;11.13;100.00;97003.09;5018910;28;20037;-95
2022/09/30 10:19:39;;;;;;;23.30;12.45;;;;;;;11.18;100.00;97002.94;5036123;28;20082;-95
2022/09/30 10:22:33;;;;;;;26.52;12.68;;;;;;;11.28;100.00;97002.47;5014690;28;20029;-95
2022/09/30 10:25:34;;;;;;;23.73;12.70;;;;;;;11.37;100.00;96997.81;5025133;28;20490;-95
2022/09/30 10:28:31;;;;;;;23.35;12.77;;;;;;;11.52;100.00;96978.06;5015536;28;20033;-95
2022/09/30 10:31:17;;;;;;;24.08;12.05;;;;;;;11.40;100.00;96974.22;5014968;28;20029;-95
2022/09/30 10:34:05;;;;;;;25.60;12.63;;;;;;;11.55;100.00;96973.56;5026031;28;20037;-95
2022/09/30 10:36:54;;;;;;;24.55;11.77;;;;;;;11.60;100.00;96960.31;5010120;28;20049;-94
2022/09/30 10:40:00;;;;;;;25.98;13.70;;;;;;;11.66;100.00;96956.59;5025121;28;20193;-95
2022/09/30 10:43:01;;;;;;;22.95;12.35;;;;;;;11.62;100.00;96945.41;5014416;28;20037;-94
2022/09/30 10:45:40;;;;;;;27.08;12.57;;;;;;;11.55;100.00;96942.25;4958265;28;20863;-93
2022/09/30 10:52:14;;;;;;;23.88;12.70;;;;;;;11.77;100.00;96923.91;5020699;28;20612;-94
2022/09/30 10:55:13;;;;;;;25.25;12.57;;;;;;;11.65;100.00;96913.97;5013012;28;20293;-95
2022/09/30 10:57:51;;;;;;;23.33;12.38;;;;;;;11.82;100.00;96894.13;4994099;28;20116;-94
2022/09/30 11:01:01;;;;;;;;;;;;;;;;;;;;;
2022/09/30 11:04:24;;;;;;;26.38;13.60;;;;;;;11.82;100.00;96881.91;4969407;28;20054;-93
2022/09/30 11:07:30;;;;;;;20.42;11.90;;;;;;;12.08;100.00;96890.34;4990949;28;20442;-94
2022/09/30 11:10:20;;;;;;;21.27;11.88;;;;;;;11.91;100.00;96850.16;5010193;28;20510;-94
2022/09/30 11:13:17;;;;;;;24.30;11.05;;;;;;;11.97;100.00;96851.69;4996262;28;20038;-93
2022/09/30 11:16:08;;;;;;;22.08;10.85;;;;;;;11.96;100.00;96852.59;4991689;28;20034;-94
2022/09/30 11:19:01;;;;;;;22.20;10.88;;;;;;;12.11;100.00;96840.59;4994556;28;20072;-93
2022/09/30 11:22:16;;;;;;;20.90;11.43;;;;;;;12.12;100.00;96834.44;5005907;28;20045;-95
2022/09/30 11:24:53;;;;;;;20.70;10.98;;;;;;;12.10;100.00;96813.59;4992896;28;20041;-94
2022/09/30 11:27:37;;;;;;;19.05;10.82;;;;;;;12.08;100.00;96819.81;5006769;28;20034;-93
2022/09/30 11:30:33;;;;;;;18.98;10.43;;;;;;;12.13;100.00;96810.00;4993045;28;20049;-95
2022/09/30 11:33:21;;;;;;;20.45;10.02;;;;;;;11.99;100.00;96810.63;5009251;28;20045;-94
2022/09/30 11:36:21;;;;;;;21.88;10.43;;;;;;;11.98;100.00;96805.50;5034654;28;20037;-95
2022/09/30 11:39:29;;;;;;;18.35;10.65;;;;;;;12.15;100.00;96808.19;5047661;28;20045;-95
2022/09/30 11:42:14;;;;;;;19.23;10.18;;;;;;;12.00;100.00;96801.91;5049444;28;20095;-95
2022/09/30 11:44:49;;;;;;;22.27;10.68;;;;;;;12.04;100.00;96808.66;5042751;28;20400;-91
2022/09/30 11:47:46;;;;;;;20.80;10.55;;;;;;;12.02;100.00;96788.75;5047970;28;20028;-94
2022/09/30 11:51:01;;;;;;;;;;;;;;;;;;;;;
2022/09/30 11:53:38;;;;;;;21.35;9.90;;;;;;;12.10;100.00;96789.25;5040887;28;20040;-95
2022/09/30 11:56:35;;;;;;;23.30;10.57;;;;;;;12.02;100.00;96786.97;5049727;28;20037;-94
2022/09/30 11:59:23;;;;;;;20.15;9.43;;;;;;;12.06;100.00;96778.06;5046976;28;20466;-94
2022/09/30 12:01:52;;;;;;;17.90;9.27;;;;;;;12.20;100.00;96772.19;5045389;28;20362;-95
2022/09/30 12:04:37;;;;;;;20.20;9.27;;;;;;;12.21;100.00;96768.69;5042664;28;20029;-95
2022/09/30 12:07:11;;;;;;;17.30;8.57;;;;;;;11.76;100.00;96764.63;5050955;28;20056;-95
2022/09/30 12:09:41;;;;;;;;;;;;;;;11.75;100.00;96766.41;5048526;28;20489;-96
2022/09/30 12:12:41;;;;;;;19.05;8.50;;;;;;;11.57;100.00;96726.31;5041123;28;19996;-95
2022/09/30 12:15:16;;;;;;;19.77;8.68;;;;;;;11.60;100.00;96734.00;5041070;28;20037;-96
2022/09/30 12:18:21;;;;;;;17.60;8.35;;;;;;;11.85;100.00;96833.91;5039856;28;20036;-95
2022/09/30 12:20:56;;;;;;;18.40;8.77;;;;;;;13.05;100.00;96748.91;5039645;28;20029;-95
2022/09/30 12:23:39;;;;;;;17.58;7.75;;;;;;;12.82;100.00;96698.59;5042134;28;20111;-93
2022/09/30 12:26:13;;;;;;;15.85;8.13;;;;;;;12.83;100.00;96681.13;5054128;28;20041;-94
2022/09/30 12:32:34;;;;;;;17.02;7.97;;;;;;;13.27;100.00;96688.41;5047754;28;20137;-94
2022/09/30 12:35:42;;;;;;;17.08;7.80;;;;;;;12.98;100.00;96673.34;5033820;28;20052;-95
2022/09/30 12:38:35;;;;;;;16.35;7.22;;;;;;;13.23;100.00;96673.81;5046300;28;20033;-94
2022/09/30 12:41:24;;;;;;;14.13;6.00;;;;;;;13.07;100.00;96666.78;5045082;28;20497;-95
2022/09/30 12:44:27;;;;;;;11.63;5.32;;;;;;;13.05;100.00;96662.53;5043590;28;20044;-95
2022/09/30 12:47:04;;;;;;;13.40;5.53;;;;;;;12.89;100.00;96662.50;5043695;28;20630;-94
2022/09/30 12:49:39;;;;;;;12.63;5.10;;;;;;;12.38;100.00;96655.47;5046334;28;20033;-93
2022/09/30 12:52:27;;;;;;;10.60;4.45;;;;;;;12.53;100.00;96659.06;5045471;28;20075;-94
2022/09/30 12:55:01;;;;;;;10.45;4.30;;;;;;;12.07;100.00;96645.69;5042824;28;20032;-94
2022/09/30 12:57:51;;;;;;;11.07;4.60;;;;;;;12.50;100.00;96627.00;5042559;28;20047;-94
2022/09/30 13:00:33;;;;;;;;;;;;;;;;;;;;;
2022/09/30 13:03:14;;;;;;;8.90;3.58;;;;;;;12.09;100.00;96608.13;5042227;28;20063;-94
2022/09/30 13:06:05;;;;;;;8.98;3.42;;;;;;;11.93;100.00;96597.53;5040106;28;20473;-94
2022/09/30 13:08:43;;;;;;;8.75;3.35;;;;;;;11.95;100.00;96593.13;5045793;28;20052;-93
2022/09/30 13:11:47;;;;;;;8.40;3.53;;;;;;;20.55;100.00;96734.63;5042909;28;20041;-93
2022/09/30 13:14:42;;;;;;;11.02;4.00;;;;;;;19.21;100.00;96686.06;5046363;28;20036;-92
2022/09/30 13:17:10;;;;;;;8.02;3.00;;;;;;;19.29;100.00;96637.91;5040319;28;20057;-92